sensor_id;sensor_type;location;lat;lon;timestamp;temperature;humidity
20866;DHT22;10593;48.398;10.698;2023-08-06T00:00:41;22.40;52.90
20866;DHT22;10593;48.398;10.698;2023-08-06T00:03:07;22.40;53.00
20866;DHT22;10593;48.398;10.698;2023-08-06T00:05:33;22.40;53.10
20866;DHT22;10593;48.398;10.698;2023-08-06T00:07:58;22.30;53.10
20866;DHT22;10593;48.398;10.698;2023-08-06T00:10:24;22.30;53.10
20866;DHT22;10593;48.398;10.698;2023-08-06T00:12:50;22.30;53.20
20866;DHT22;10593;48.398;10.698;2023-08-06T00:15:16;22.30;53.20
20866;DHT22;10593;48.398;10.698;2023-08-06T00:17:42;22.30;53.20
20866;DHT22;10593;48.398;10.698;2023-08-06T00:20:08;22.30;53.20
20866;DHT22;10593;48.398;10.698;2023-08-06T00:22:36;22.30;53.20
20866;DHT22;10593;48.398;10.698;2023-08-06T00:25:04;22.30;53.20
20866;DHT22;10593;48.398;10.698;2023-08-06T00:27:30;22.20;53.10
20866;DHT22;10593;48.398;10.698;2023-08-06T00:29:57;22.20;53.00
20866;DHT22;10593;48.398;10.698;2023-08-06T00:32:24;22.20;53.00
20866;DHT22;10593;48.398;10.698;2023-08-06T00:34:50;22.20;53.00
20866;DHT22;10593;48.398;10.698;2023-08-06T00:37:18;22.20;53.00
20866;DHT22;10593;48.398;10.698;2023-08-06T00:39:44;22.20;53.00
20866;DHT22;10593;48.398;10.698;2023-08-06T00:42:11;22.10;52.90
20866;DHT22;10593;48.398;10.698;2023-08-06T00:44:37;22.20;53.00
20866;DHT22;10593;48.398;10.698;2023-08-06T00:47:04;22.10;53.10
20866;DHT22;10593;48.398;10.698;2023-08-06T00:49:31;22.10;53.30
20866;DHT22;10593;48.398;10.698;2023-08-06T00:51:57;22.10;53.30
20866;DHT22;10593;48.398;10.698;2023-08-06T00:54:24;22.10;53.40
20866;DHT22;10593;48.398;10.698;2023-08-06T00:56:50;22.00;53.30
20866;DHT22;10593;48.398;10.698;2023-08-06T00:59:17;22.00;53.30
20866;DHT22;10593;48.398;10.698;2023-08-06T01:01:43;22.00;53.40
20866;DHT22;10593;48.398;10.698;2023-08-06T01:04:12;22.00;53.40
20866;DHT22;10593;48.398;10.698;2023-08-06T01:06:46;22.00;53.50
20866;DHT22;10593;48.398;10.698;2023-08-06T01:09:35;22.00;53.40
20866;DHT22;10593;48.398;10.698;2023-08-06T01:12:48;22.00;53.60
20866;DHT22;10593;48.398;10.698;2023-08-06T01:15:35;22.00;53.60
20866;DHT22;10593;48.398;10.698;2023-08-06T01:18:08;21.90;53.40
20866;DHT22;10593;48.398;10.698;2023-08-06T01:20:34;22.00;53.50
20866;DHT22;10593;48.398;10.698;2023-08-06T01:23:00;21.90;53.50
20866;DHT22;10593;48.398;10.698;2023-08-06T01:25:31;21.90;53.60
20866;DHT22;10593;48.398;10.698;2023-08-06T01:28:05;21.90;53.70
20866;DHT22;10593;48.398;10.698;2023-08-06T01:30:42;21.90;53.70
20866;DHT22;10593;48.398;10.698;2023-08-06T01:33:14;21.90;53.70
20866;DHT22;10593;48.398;10.698;2023-08-06T01:35:44;21.90;53.70
20866;DHT22;10593;48.398;10.698;2023-08-06T01:38:12;21.80;53.70
20866;DHT22;10593;48.398;10.698;2023-08-06T01:40:38;21.80;53.70
20866;DHT22;10593;48.398;10.698;2023-08-06T01:43:05;21.80;53.70
20866;DHT22;10593;48.398;10.698;2023-08-06T01:45:31;21.80;53.70
20866;DHT22;10593;48.398;10.698;2023-08-06T01:47:57;21.80;53.70
20866;DHT22;10593;48.398;10.698;2023-08-06T01:50:22;21.80;53.60
20866;DHT22;10593;48.398;10.698;2023-08-06T01:52:48;21.80;53.50
20866;DHT22;10593;48.398;10.698;2023-08-06T01:55:15;21.80;53.50
20866;DHT22;10593;48.398;10.698;2023-08-06T01:57:41;21.80;53.60
20866;DHT22;10593;48.398;10.698;2023-08-06T02:00:07;21.70;53.50
20866;DHT22;10593;48.398;10.698;2023-08-06T02:02:33;21.80;53.60
20866;DHT22;10593;48.398;10.698;2023-08-06T02:04:59;21.70;53.60
20866;DHT22;10593;48.398;10.698;2023-08-06T02:07:25;21.70;53.60
20866;DHT22;10593;48.398;10.698;2023-08-06T02:09:51;21.70;53.60
20866;DHT22;10593;48.398;10.698;2023-08-06T02:12:16;21.70;53.60
20866;DHT22;10593;48.398;10.698;2023-08-06T02:14:42;21.70;53.60
20866;DHT22;10593;48.398;10.698;2023-08-06T02:17:07;21.70;53.50
20866;DHT22;10593;48.398;10.698;2023-08-06T02:19:33;21.70;53.60
20866;DHT22;10593;48.398;10.698;2023-08-06T02:21:59;21.60;53.50
20866;DHT22;10593;48.398;10.698;2023-08-06T02:24:24;21.60;53.50
20866;DHT22;10593;48.398;10.698;2023-08-06T02:26:50;21.60;53.60
20866;DHT22;10593;48.398;10.698;2023-08-06T02:29:18;21.60;53.70
20866;DHT22;10593;48.398;10.698;2023-08-06T02:31:44;21.70;53.80
20866;DHT22;10593;48.398;10.698;2023-08-06T02:34:09;21.60;53.70
20866;DHT22;10593;48.398;10.698;2023-08-06T02:36:36;21.60;53.70
20866;DHT22;10593;48.398;10.698;2023-08-06T02:39:02;21.60;53.80
20866;DHT22;10593;48.398;10.698;2023-08-06T02:41:28;21.60;53.70
20866;DHT22;10593;48.398;10.698;2023-08-06T02:43:53;21.50;53.60
20866;DHT22;10593;48.398;10.698;2023-08-06T02:46:19;21.50;53.60
20866;DHT22;10593;48.398;10.698;2023-08-06T02:48:45;21.50;53.60
20866;DHT22;10593;48.398;10.698;2023-08-06T02:51:10;21.50;53.50
20866;DHT22;10593;48.398;10.698;2023-08-06T02:53:36;21.50;53.50
20866;DHT22;10593;48.398;10.698;2023-08-06T02:56:02;21.50;53.50
20866;DHT22;10593;48.398;10.698;2023-08-06T02:58:28;21.50;53.50
20866;DHT22;10593;48.398;10.698;2023-08-06T03:01:01;21.40;53.40
20866;DHT22;10593;48.398;10.698;2023-08-06T03:03:29;21.40;53.40
20866;DHT22;10593;48.398;10.698;2023-08-06T03:05:56;21.40;53.40
20866;DHT22;10593;48.398;10.698;2023-08-06T03:08:21;21.40;53.30
20866;DHT22;10593;48.398;10.698;2023-08-06T03:10:49;21.40;53.30
20866;DHT22;10593;48.398;10.698;2023-08-06T03:13:18;21.40;53.40
20866;DHT22;10593;48.398;10.698;2023-08-06T03:15:55;21.40;53.40
20866;DHT22;10593;48.398;10.698;2023-08-06T03:18:22;21.40;53.40
20866;DHT22;10593;48.398;10.698;2023-08-06T03:20:48;21.30;53.30
20866;DHT22;10593;48.398;10.698;2023-08-06T03:23:15;21.30;53.40
20866;DHT22;10593;48.398;10.698;2023-08-06T03:25:40;21.30;53.40
20866;DHT22;10593;48.398;10.698;2023-08-06T03:28:06;21.30;53.40
20866;DHT22;10593;48.398;10.698;2023-08-06T03:30:32;21.30;53.40
20866;DHT22;10593;48.398;10.698;2023-08-06T03:32:57;21.30;53.50
20866;DHT22;10593;48.398;10.698;2023-08-06T03:35:23;21.30;53.50
20866;DHT22;10593;48.398;10.698;2023-08-06T03:37:49;21.30;53.50
20866;DHT22;10593;48.398;10.698;2023-08-06T03:40:15;21.30;53.50
20866;DHT22;10593;48.398;10.698;2023-08-06T03:42:41;21.30;53.60
20866;DHT22;10593;48.398;10.698;2023-08-06T03:45:07;21.20;53.50
20866;DHT22;10593;48.398;10.698;2023-08-06T03:47:33;21.20;53.60
20866;DHT22;10593;48.398;10.698;2023-08-06T03:49:58;21.20;53.70
20866;DHT22;10593;48.398;10.698;2023-08-06T03:52:24;21.20;53.60
20866;DHT22;10593;48.398;10.698;2023-08-06T03:54:50;21.20;53.60
20866;DHT22;10593;48.398;10.698;2023-08-06T03:57:15;21.20;53.70
20866;DHT22;10593;48.398;10.698;2023-08-06T03:59:41;21.20;53.70
20866;DHT22;10593;48.398;10.698;2023-08-06T04:02:07;21.20;53.60
20866;DHT22;10593;48.398;10.698;2023-08-06T04:04:32;21.20;53.60
20866;DHT22;10593;48.398;10.698;2023-08-06T04:06:58;21.10;53.60
20866;DHT22;10593;48.398;10.698;2023-08-06T04:09:24;21.10;53.60
20866;DHT22;10593;48.398;10.698;2023-08-06T04:11:49;21.10;53.50
20866;DHT22;10593;48.398;10.698;2023-08-06T04:14:15;21.10;53.50
20866;DHT22;10593;48.398;10.698;2023-08-06T04:16:40;21.10;53.50
20866;DHT22;10593;48.398;10.698;2023-08-06T04:19:06;21.10;53.50
20866;DHT22;10593;48.398;10.698;2023-08-06T04:21:32;21.10;53.40
20866;DHT22;10593;48.398;10.698;2023-08-06T04:23:57;21.10;53.40
20866;DHT22;10593;48.398;10.698;2023-08-06T04:26:23;21.00;53.30
20866;DHT22;10593;48.398;10.698;2023-08-06T04:28:49;21.00;53.30
20866;DHT22;10593;48.398;10.698;2023-08-06T04:31:14;21.00;53.30
20866;DHT22;10593;48.398;10.698;2023-08-06T04:33:40;21.00;53.30
20866;DHT22;10593;48.398;10.698;2023-08-06T04:36:06;21.00;53.20
20866;DHT22;10593;48.398;10.698;2023-08-06T04:38:32;21.00;53.30
20866;DHT22;10593;48.398;10.698;2023-08-06T04:40:58;21.00;53.30
20866;DHT22;10593;48.398;10.698;2023-08-06T04:43:24;21.00;53.30
20866;DHT22;10593;48.398;10.698;2023-08-06T04:45:51;21.00;53.30
20866;DHT22;10593;48.398;10.698;2023-08-06T04:48:19;21.00;53.30
20866;DHT22;10593;48.398;10.698;2023-08-06T04:50:49;20.90;53.30
20866;DHT22;10593;48.398;10.698;2023-08-06T04:53:16;20.90;53.30
20866;DHT22;10593;48.398;10.698;2023-08-06T04:55:42;20.90;53.30
20866;DHT22;10593;48.398;10.698;2023-08-06T04:58:09;20.90;53.40
20866;DHT22;10593;48.398;10.698;2023-08-06T05:00:36;20.90;53.40
20866;DHT22;10593;48.398;10.698;2023-08-06T05:03:02;20.90;53.50
20866;DHT22;10593;48.398;10.698;2023-08-06T05:05:28;20.90;53.60
20866;DHT22;10593;48.398;10.698;2023-08-06T05:07:55;20.90;53.60
20866;DHT22;10593;48.398;10.698;2023-08-06T05:10:24;20.90;53.60
20866;DHT22;10593;48.398;10.698;2023-08-06T05:12:51;20.90;53.60
20866;DHT22;10593;48.398;10.698;2023-08-06T05:15:17;20.90;53.70
20866;DHT22;10593;48.398;10.698;2023-08-06T05:17:43;20.90;53.60
20866;DHT22;10593;48.398;10.698;2023-08-06T05:20:09;20.90;53.70
20866;DHT22;10593;48.398;10.698;2023-08-06T05:22:36;20.90;53.70
20866;DHT22;10593;48.398;10.698;2023-08-06T05:25:02;20.90;53.80
20866;DHT22;10593;48.398;10.698;2023-08-06T05:27:28;20.90;54.00
20866;DHT22;10593;48.398;10.698;2023-08-06T05:29:55;20.90;53.90
20866;DHT22;10593;48.398;10.698;2023-08-06T05:32:24;21.00;54.00
20866;DHT22;10593;48.398;10.698;2023-08-06T05:34:49;20.90;54.10
20866;DHT22;10593;48.398;10.698;2023-08-06T05:37:15;21.00;54.20
20866;DHT22;10593;48.398;10.698;2023-08-06T05:39:41;21.00;54.30
20866;DHT22;10593;48.398;10.698;2023-08-06T05:42:07;21.00;54.40
20866;DHT22;10593;48.398;10.698;2023-08-06T05:44:33;21.00;54.40
20866;DHT22;10593;48.398;10.698;2023-08-06T05:46:59;21.00;54.40
20866;DHT22;10593;48.398;10.698;2023-08-06T05:49:25;21.00;54.50
20866;DHT22;10593;48.398;10.698;2023-08-06T05:51:51;21.00;54.30
20866;DHT22;10593;48.398;10.698;2023-08-06T05:54:21;21.10;54.50
20866;DHT22;10593;48.398;10.698;2023-08-06T05:56:48;21.10;54.60
20866;DHT22;10593;48.398;10.698;2023-08-06T05:59:13;21.10;54.70
20866;DHT22;10593;48.398;10.698;2023-08-06T06:01:39;21.10;54.70
20866;DHT22;10593;48.398;10.698;2023-08-06T06:04:06;21.10;54.60
20866;DHT22;10593;48.398;10.698;2023-08-06T06:06:31;21.10;54.60
20866;DHT22;10593;48.398;10.698;2023-08-06T06:08:58;21.10;54.50
20866;DHT22;10593;48.398;10.698;2023-08-06T06:11:23;21.10;54.60
20866;DHT22;10593;48.398;10.698;2023-08-06T06:13:50;21.20;54.60
20866;DHT22;10593;48.398;10.698;2023-08-06T06:16:18;21.20;54.60
20866;DHT22;10593;48.398;10.698;2023-08-06T06:18:44;21.20;54.30
20866;DHT22;10593;48.398;10.698;2023-08-06T06:21:10;21.20;54.40
20866;DHT22;10593;48.398;10.698;2023-08-06T06:23:36;21.20;54.30
20866;DHT22;10593;48.398;10.698;2023-08-06T06:28:37;21.20;54.40
20866;DHT22;10593;48.398;10.698;2023-08-06T06:31:03;21.20;54.50
20866;DHT22;10593;48.398;10.698;2023-08-06T06:33:29;21.20;54.50
20866;DHT22;10593;48.398;10.698;2023-08-06T06:35:54;21.20;54.40
20866;DHT22;10593;48.398;10.698;2023-08-06T06:38:20;21.10;54.30
20866;DHT22;10593;48.398;10.698;2023-08-06T06:40:56;21.10;54.40
20866;DHT22;10593;48.398;10.698;2023-08-06T06:43:22;21.10;54.50
20866;DHT22;10593;48.398;10.698;2023-08-06T06:45:57;21.10;54.50
20866;DHT22;10593;48.398;10.698;2023-08-06T06:48:25;21.10;54.80
20866;DHT22;10593;48.398;10.698;2023-08-06T06:50:52;21.10;54.80
20866;DHT22;10593;48.398;10.698;2023-08-06T06:53:18;21.00;54.90
20866;DHT22;10593;48.398;10.698;2023-08-06T06:55:44;21.00;54.80
20866;DHT22;10593;48.398;10.698;2023-08-06T06:58:33;21.10;54.90
20866;DHT22;10593;48.398;10.698;2023-08-06T07:00:59;21.10;54.90
20866;DHT22;10593;48.398;10.698;2023-08-06T07:03:25;21.10;54.90
20866;DHT22;10593;48.398;10.698;2023-08-06T07:05:57;21.10;54.90
20866;DHT22;10593;48.398;10.698;2023-08-06T07:08:24;21.10;54.90
20866;DHT22;10593;48.398;10.698;2023-08-06T07:10:50;21.10;54.70
20866;DHT22;10593;48.398;10.698;2023-08-06T07:13:26;21.10;54.60
20866;DHT22;10593;48.398;10.698;2023-08-06T07:15:51;21.20;54.60
20866;DHT22;10593;48.398;10.698;2023-08-06T07:18:17;21.20;54.60
20866;DHT22;10593;48.398;10.698;2023-08-06T07:20:48;21.20;54.60
20866;DHT22;10593;48.398;10.698;2023-08-06T07:23:14;21.20;54.50
20866;DHT22;10593;48.398;10.698;2023-08-06T07:28:23;21.20;54.30
20866;DHT22;10593;48.398;10.698;2023-08-06T07:33:25;21.20;54.20
20866;DHT22;10593;48.398;10.698;2023-08-06T07:35:53;21.20;53.90
20866;DHT22;10593;48.398;10.698;2023-08-06T07:38:20;21.20;53.80
20866;DHT22;10593;48.398;10.698;2023-08-06T07:40:47;21.20;53.90
20866;DHT22;10593;48.398;10.698;2023-08-06T07:43:12;21.20;53.80
20866;DHT22;10593;48.398;10.698;2023-08-06T07:45:38;21.20;53.80
20866;DHT22;10593;48.398;10.698;2023-08-06T07:48:04;21.20;53.60
20866;DHT22;10593;48.398;10.698;2023-08-06T07:50:30;21.20;53.50
20866;DHT22;10593;48.398;10.698;2023-08-06T07:52:56;21.20;53.70
20866;DHT22;10593;48.398;10.698;2023-08-06T07:55:22;21.20;53.80
20866;DHT22;10593;48.398;10.698;2023-08-06T07:57:49;21.20;53.80
20866;DHT22;10593;48.398;10.698;2023-08-06T08:00:15;21.20;53.70
20866;DHT22;10593;48.398;10.698;2023-08-06T08:02:41;21.20;53.50
20866;DHT22;10593;48.398;10.698;2023-08-06T08:05:07;21.20;53.40
20866;DHT22;10593;48.398;10.698;2023-08-06T08:07:33;21.20;53.10
20866;DHT22;10593;48.398;10.698;2023-08-06T08:10:00;21.20;52.90
20866;DHT22;10593;48.398;10.698;2023-08-06T08:12:26;21.20;53.00
20866;DHT22;10593;48.398;10.698;2023-08-06T08:14:52;21.20;52.90
20866;DHT22;10593;48.398;10.698;2023-08-06T08:17:19;21.20;53.10
20866;DHT22;10593;48.398;10.698;2023-08-06T08:19:45;21.20;53.10
20866;DHT22;10593;48.398;10.698;2023-08-06T08:22:11;21.20;53.10
20866;DHT22;10593;48.398;10.698;2023-08-06T08:24:37;21.20;53.00
20866;DHT22;10593;48.398;10.698;2023-08-06T08:27:03;21.20;53.10
20866;DHT22;10593;48.398;10.698;2023-08-06T08:29:29;21.20;53.10
20866;DHT22;10593;48.398;10.698;2023-08-06T08:31:54;21.20;53.10
20866;DHT22;10593;48.398;10.698;2023-08-06T08:34:20;21.10;53.00
20866;DHT22;10593;48.398;10.698;2023-08-06T08:36:48;21.10;52.90
20866;DHT22;10593;48.398;10.698;2023-08-06T08:39:16;21.10;52.60
20866;DHT22;10593;48.398;10.698;2023-08-06T08:41:42;21.10;52.70
20866;DHT22;10593;48.398;10.698;2023-08-06T08:44:10;21.10;52.70
20866;DHT22;10593;48.398;10.698;2023-08-06T08:46:42;21.10;52.70
20866;DHT22;10593;48.398;10.698;2023-08-06T08:49:09;21.10;52.80
20866;DHT22;10593;48.398;10.698;2023-08-06T08:51:36;21.10;52.80
20866;DHT22;10593;48.398;10.698;2023-08-06T08:54:07;21.10;52.70
20866;DHT22;10593;48.398;10.698;2023-08-06T08:56:35;21.10;52.80
20866;DHT22;10593;48.398;10.698;2023-08-06T08:59:02;21.00;52.80
20866;DHT22;10593;48.398;10.698;2023-08-06T09:01:28;21.10;53.00
20866;DHT22;10593;48.398;10.698;2023-08-06T09:03:55;21.00;52.90
20866;DHT22;10593;48.398;10.698;2023-08-06T09:06:27;21.00;52.70
20866;DHT22;10593;48.398;10.698;2023-08-06T09:09:08;21.10;53.10
20866;DHT22;10593;48.398;10.698;2023-08-06T09:11:43;21.00;53.40
20866;DHT22;10593;48.398;10.698;2023-08-06T09:14:13;21.00;53.50
20866;DHT22;10593;48.398;10.698;2023-08-06T09:16:42;21.00;53.70
20866;DHT22;10593;48.398;10.698;2023-08-06T09:19:09;21.00;53.70
20866;DHT22;10593;48.398;10.698;2023-08-06T09:21:44;21.00;53.70
20866;DHT22;10593;48.398;10.698;2023-08-06T09:24:14;21.00;53.70
20866;DHT22;10593;48.398;10.698;2023-08-06T09:26:42;21.00;53.70
20866;DHT22;10593;48.398;10.698;2023-08-06T09:29:10;21.00;53.70
20866;DHT22;10593;48.398;10.698;2023-08-06T09:31:47;20.90;53.30
20866;DHT22;10593;48.398;10.698;2023-08-06T09:34:22;21.00;53.40
20866;DHT22;10593;48.398;10.698;2023-08-06T09:36:49;20.90;53.10
20866;DHT22;10593;48.398;10.698;2023-08-06T09:39:20;20.90;53.10
20866;DHT22;10593;48.398;10.698;2023-08-06T09:41:48;20.80;53.20
20866;DHT22;10593;48.398;10.698;2023-08-06T09:44:22;20.70;53.50
20866;DHT22;10593;48.398;10.698;2023-08-06T09:46:52;20.70;53.60
20866;DHT22;10593;48.398;10.698;2023-08-06T09:51:58;20.60;54.00
20866;DHT22;10593;48.398;10.698;2023-08-06T09:54:26;20.50;54.00
20866;DHT22;10593;48.398;10.698;2023-08-06T09:56:54;20.60;54.30
20866;DHT22;10593;48.398;10.698;2023-08-06T09:59:20;20.50;54.40
20866;DHT22;10593;48.398;10.698;2023-08-06T10:01:48;20.40;54.40
20866;DHT22;10593;48.398;10.698;2023-08-06T10:04:15;20.40;54.60
20866;DHT22;10593;48.398;10.698;2023-08-06T10:06:47;20.40;54.40
20866;DHT22;10593;48.398;10.698;2023-08-06T10:09:14;20.40;54.50
20866;DHT22;10593;48.398;10.698;2023-08-06T10:11:40;20.40;54.60
20866;DHT22;10593;48.398;10.698;2023-08-06T10:14:16;20.30;54.70
20866;DHT22;10593;48.398;10.698;2023-08-06T10:16:47;20.30;54.80
20866;DHT22;10593;48.398;10.698;2023-08-06T10:19:16;20.30;54.70
20866;DHT22;10593;48.398;10.698;2023-08-06T10:24:56;20.20;55.30
20866;DHT22;10593;48.398;10.698;2023-08-06T10:33:01;20.10;55.60
20866;DHT22;10593;48.398;10.698;2023-08-06T10:35:44;20.00;55.30
20866;DHT22;10593;48.398;10.698;2023-08-06T10:38:19;20.00;55.20
20866;DHT22;10593;48.398;10.698;2023-08-06T10:43:26;19.90;55.50
20866;DHT22;10593;48.398;10.698;2023-08-06T10:45:52;19.90;55.70
20866;DHT22;10593;48.398;10.698;2023-08-06T10:48:49;19.90;55.50
20866;DHT22;10593;48.398;10.698;2023-08-06T10:51:15;19.90;56.50
20866;DHT22;10593;48.398;10.698;2023-08-06T10:53:48;19.90;55.60
20866;DHT22;10593;48.398;10.698;2023-08-06T10:56:19;19.80;55.60
20866;DHT22;10593;48.398;10.698;2023-08-06T10:58:50;19.80;55.70
20866;DHT22;10593;48.398;10.698;2023-08-06T11:01:17;19.80;55.50
20866;DHT22;10593;48.398;10.698;2023-08-06T11:03:45;19.80;55.70
20866;DHT22;10593;48.398;10.698;2023-08-06T11:06:17;19.80;56.00
20866;DHT22;10593;48.398;10.698;2023-08-06T11:08:54;19.80;56.10
20866;DHT22;10593;48.398;10.698;2023-08-06T11:11:22;19.80;56.20
20866;DHT22;10593;48.398;10.698;2023-08-06T11:13:50;19.70;56.00
20866;DHT22;10593;48.398;10.698;2023-08-06T11:16:23;19.80;56.10
20866;DHT22;10593;48.398;10.698;2023-08-06T11:18:52;19.80;56.50
20866;DHT22;10593;48.398;10.698;2023-08-06T11:21:20;19.80;56.20
20866;DHT22;10593;48.398;10.698;2023-08-06T11:23:46;19.80;56.10
20866;DHT22;10593;48.398;10.698;2023-08-06T11:26:12;19.80;56.10
20866;DHT22;10593;48.398;10.698;2023-08-06T11:28:43;19.90;56.20
20866;DHT22;10593;48.398;10.698;2023-08-06T11:31:24;19.90;56.00
20866;DHT22;10593;48.398;10.698;2023-08-06T11:33:53;19.90;55.90
20866;DHT22;10593;48.398;10.698;2023-08-06T11:36:33;19.90;55.70
20866;DHT22;10593;48.398;10.698;2023-08-06T11:39:02;19.90;55.70
20866;DHT22;10593;48.398;10.698;2023-08-06T11:41:30;20.00;55.90
20866;DHT22;10593;48.398;10.698;2023-08-06T11:43:58;20.00;55.90
20866;DHT22;10593;48.398;10.698;2023-08-06T11:46:24;20.00;56.00
20866;DHT22;10593;48.398;10.698;2023-08-06T11:48:55;20.00;56.10
20866;DHT22;10593;48.398;10.698;2023-08-06T11:51:23;20.10;56.40
20866;DHT22;10593;48.398;10.698;2023-08-06T11:53:55;20.00;56.40
20866;DHT22;10593;48.398;10.698;2023-08-06T11:56:21;20.00;56.60
20866;DHT22;10593;48.398;10.698;2023-08-06T11:58:47;20.10;56.60
20866;DHT22;10593;48.398;10.698;2023-08-06T12:01:14;20.10;56.70
20866;DHT22;10593;48.398;10.698;2023-08-06T12:03:41;20.00;56.60
20866;DHT22;10593;48.398;10.698;2023-08-06T12:06:09;20.00;56.60
20866;DHT22;10593;48.398;10.698;2023-08-06T12:08:43;20.00;56.50
20866;DHT22;10593;48.398;10.698;2023-08-06T12:11:09;20.00;56.70
20866;DHT22;10593;48.398;10.698;2023-08-06T12:13:35;20.00;56.20
20866;DHT22;10593;48.398;10.698;2023-08-06T12:16:00;20.00;56.30
20866;DHT22;10593;48.398;10.698;2023-08-06T12:18:26;19.90;55.90
20866;DHT22;10593;48.398;10.698;2023-08-06T12:20:52;20.00;56.00
20866;DHT22;10593;48.398;10.698;2023-08-06T12:23:17;19.90;56.20
20866;DHT22;10593;48.398;10.698;2023-08-06T12:25:43;19.90;56.20
20866;DHT22;10593;48.398;10.698;2023-08-06T12:28:21;19.90;56.20
20866;DHT22;10593;48.398;10.698;2023-08-06T12:30:47;19.90;57.30
20866;DHT22;10593;48.398;10.698;2023-08-06T12:33:14;19.90;57.40
20866;DHT22;10593;48.398;10.698;2023-08-06T12:35:39;19.80;57.70
20866;DHT22;10593;48.398;10.698;2023-08-06T12:38:05;19.80;57.80
20866;DHT22;10593;48.398;10.698;2023-08-06T12:40:31;19.90;58.00
20866;DHT22;10593;48.398;10.698;2023-08-06T12:42:56;19.90;58.80
20866;DHT22;10593;48.398;10.698;2023-08-06T12:45:24;19.90;58.10
20866;DHT22;10593;48.398;10.698;2023-08-06T12:47:53;19.90;57.70
20866;DHT22;10593;48.398;10.698;2023-08-06T12:50:19;19.90;57.40
20866;DHT22;10593;48.398;10.698;2023-08-06T12:52:44;19.90;57.00
20866;DHT22;10593;48.398;10.698;2023-08-06T12:55:10;19.90;56.90
20866;DHT22;10593;48.398;10.698;2023-08-06T12:57:36;19.90;56.70
20866;DHT22;10593;48.398;10.698;2023-08-06T13:00:02;19.90;56.60
20866;DHT22;10593;48.398;10.698;2023-08-06T13:02:31;19.90;56.80
20866;DHT22;10593;48.398;10.698;2023-08-06T13:04:57;19.90;57.00
20866;DHT22;10593;48.398;10.698;2023-08-06T13:07:23;19.90;56.60
20866;DHT22;10593;48.398;10.698;2023-08-06T13:09:48;19.90;56.80
20866;DHT22;10593;48.398;10.698;2023-08-06T13:12:14;19.80;57.10
20866;DHT22;10593;48.398;10.698;2023-08-06T13:14:41;19.80;57.00
20866;DHT22;10593;48.398;10.698;2023-08-06T13:17:07;19.80;57.00
20866;DHT22;10593;48.398;10.698;2023-08-06T13:19:33;19.80;57.30
20866;DHT22;10593;48.398;10.698;2023-08-06T13:22:01;19.80;57.80
20866;DHT22;10593;48.398;10.698;2023-08-06T13:24:29;19.70;58.10
20866;DHT22;10593;48.398;10.698;2023-08-06T13:26:55;19.70;57.80
20866;DHT22;10593;48.398;10.698;2023-08-06T13:29:21;19.70;57.90
20866;DHT22;10593;48.398;10.698;2023-08-06T13:31:46;19.70;57.90
20866;DHT22;10593;48.398;10.698;2023-08-06T13:34:12;19.70;57.70
20866;DHT22;10593;48.398;10.698;2023-08-06T13:36:38;19.70;57.70
20866;DHT22;10593;48.398;10.698;2023-08-06T13:39:04;19.70;57.40
20866;DHT22;10593;48.398;10.698;2023-08-06T13:41:30;19.70;57.10
20866;DHT22;10593;48.398;10.698;2023-08-06T13:43:56;19.70;56.90
20866;DHT22;10593;48.398;10.698;2023-08-06T13:46:22;19.60;56.80
20866;DHT22;10593;48.398;10.698;2023-08-06T13:48:48;19.60;56.90
20866;DHT22;10593;48.398;10.698;2023-08-06T13:51:18;19.60;57.00
20866;DHT22;10593;48.398;10.698;2023-08-06T13:53:44;19.60;57.40
20866;DHT22;10593;48.398;10.698;2023-08-06T13:56:10;19.60;57.60
20866;DHT22;10593;48.398;10.698;2023-08-06T13:58:39;19.60;57.60
20866;DHT22;10593;48.398;10.698;2023-08-06T14:01:05;19.60;57.90
20866;DHT22;10593;48.398;10.698;2023-08-06T14:03:31;19.60;57.80
20866;DHT22;10593;48.398;10.698;2023-08-06T14:05:57;19.60;57.60
20866;DHT22;10593;48.398;10.698;2023-08-06T14:08:26;19.60;57.60
20866;DHT22;10593;48.398;10.698;2023-08-06T14:10:52;19.60;57.80
20866;DHT22;10593;48.398;10.698;2023-08-06T14:13:18;19.70;58.00
20866;DHT22;10593;48.398;10.698;2023-08-06T14:15:44;19.70;58.00
20866;DHT22;10593;48.398;10.698;2023-08-06T14:18:15;19.70;58.00
20866;DHT22;10593;48.398;10.698;2023-08-06T14:20:42;19.70;57.80
20866;DHT22;10593;48.398;10.698;2023-08-06T14:23:09;19.70;57.90
20866;DHT22;10593;48.398;10.698;2023-08-06T14:25:35;19.70;57.90
20866;DHT22;10593;48.398;10.698;2023-08-06T14:28:03;19.70;57.70
20866;DHT22;10593;48.398;10.698;2023-08-06T14:30:29;19.70;56.90
20866;DHT22;10593;48.398;10.698;2023-08-06T14:32:54;19.70;56.10
20866;DHT22;10593;48.398;10.698;2023-08-06T14:35:20;19.70;56.00
20866;DHT22;10593;48.398;10.698;2023-08-06T14:37:48;19.70;56.00
20866;DHT22;10593;48.398;10.698;2023-08-06T14:40:14;19.70;55.70
20866;DHT22;10593;48.398;10.698;2023-08-06T14:42:40;19.70;55.40
20866;DHT22;10593;48.398;10.698;2023-08-06T14:45:06;19.60;55.10
20866;DHT22;10593;48.398;10.698;2023-08-06T14:47:34;19.60;55.10
20866;DHT22;10593;48.398;10.698;2023-08-06T14:50:00;19.60;54.90
20866;DHT22;10593;48.398;10.698;2023-08-06T14:52:26;19.60;54.40
20866;DHT22;10593;48.398;10.698;2023-08-06T14:54:52;19.60;54.40
20866;DHT22;10593;48.398;10.698;2023-08-06T14:57:22;19.60;54.50
20866;DHT22;10593;48.398;10.698;2023-08-06T14:59:53;19.60;54.50
20866;DHT22;10593;48.398;10.698;2023-08-06T15:02:22;19.60;54.40
20866;DHT22;10593;48.398;10.698;2023-08-06T15:04:48;19.60;54.40
20866;DHT22;10593;48.398;10.698;2023-08-06T15:07:15;19.60;54.40
20866;DHT22;10593;48.398;10.698;2023-08-06T15:09:43;19.60;54.30
20866;DHT22;10593;48.398;10.698;2023-08-06T15:12:11;19.60;54.20
20866;DHT22;10593;48.398;10.698;2023-08-06T15:14:40;19.60;54.40
20866;DHT22;10593;48.398;10.698;2023-08-06T15:17:06;19.60;54.20
20866;DHT22;10593;48.398;10.698;2023-08-06T15:19:31;19.60;54.30
20866;DHT22;10593;48.398;10.698;2023-08-06T15:21:57;19.60;54.40
20866;DHT22;10593;48.398;10.698;2023-08-06T15:24:23;19.60;54.30
20866;DHT22;10593;48.398;10.698;2023-08-06T15:26:51;19.60;54.40
20866;DHT22;10593;48.398;10.698;2023-08-06T15:29:19;19.50;54.60
20866;DHT22;10593;48.398;10.698;2023-08-06T15:31:45;19.50;54.90
20866;DHT22;10593;48.398;10.698;2023-08-06T15:34:12;19.50;55.10
20866;DHT22;10593;48.398;10.698;2023-08-06T15:36:37;19.50;55.30
20866;DHT22;10593;48.398;10.698;2023-08-06T15:39:03;19.50;55.50